createdAt,value
2022-08-26T00:01:59.259Z,99746.05
2022-08-26T00:04:34.462Z,99746.98
2022-08-26T00:07:08.166Z,99742.12
2022-08-26T00:09:42.025Z,99745.73
2022-08-26T00:12:16.816Z,99744.04
2022-08-26T00:14:50.821Z,99745.44
2022-08-26T00:17:24.436Z,99744.16
2022-08-26T00:19:59.022Z,99751.80
2022-08-26T00:22:31.838Z,99742.97
2022-08-26T00:25:06.036Z,99744.35
2022-08-26T00:27:39.883Z,99746.66
2022-08-26T00:30:17.572Z,99751.56
2022-08-26T00:32:53.326Z,99752.06
2022-08-26T00:35:27.891Z,99748.54
2022-08-26T00:38:02.878Z,99753.44
2022-08-26T00:40:41.034Z,99747.22
2022-08-26T00:43:15.051Z,99748.12
2022-08-26T00:46:07.876Z,99741.48
2022-08-26T00:48:41.744Z,99748.18
2022-08-26T00:51:29.579Z,99753.55
2022-08-26T00:54:07.978Z,99755.81
2022-08-26T00:57:00.073Z,99752.70
2022-08-26T00:59:34.062Z,99750.53
2022-08-26T01:02:07.147Z,99747.88
2022-08-26T01:04:42.242Z,99752.78
2022-08-26T01:07:16.554Z,99752.80
2022-08-26T01:09:49.613Z,99750.20
2022-08-26T01:12:22.896Z,99751.98
2022-08-26T01:14:56.337Z,99753.80
2022-08-26T01:17:29.507Z,99748.03
2022-08-26T01:20:26.844Z,99745.84
2022-08-26T01:23:08.491Z,99751.65
2022-08-26T01:25:46.233Z,99750.33
2022-08-26T01:28:22.877Z,99749.47
2022-08-26T01:30:57.194Z,99737.00
2022-08-26T01:33:46.937Z,99747.67
2022-08-26T01:36:20.098Z,99747.69
2022-08-26T01:38:53.879Z,99743.72
2022-08-26T01:41:29.061Z,99747.72
2022-08-26T01:44:03.425Z,99750.41
2022-08-26T01:46:36.751Z,99748.66
2022-08-26T01:49:10.800Z,99745.09
2022-08-26T01:51:44.683Z,99755.76
2022-08-26T01:54:20.416Z,99750.89
2022-08-26T01:56:56.215Z,99751.80
2022-08-26T01:59:29.605Z,99760.23
2022-08-26T02:02:03.153Z,99758.02
2022-08-26T02:04:43.687Z,99753.16
2022-08-26T02:07:16.999Z,99750.04
2022-08-26T02:09:51.439Z,99751.83
2022-08-26T02:12:24.907Z,99750.93
2022-08-26T02:15:02.240Z,99750.93
2022-08-26T02:17:46.640Z,99755.84
2022-08-26T02:20:22.193Z,99756.72
2022-08-26T02:22:56.398Z,99755.84
2022-08-26T02:25:40.749Z,99754.93
2022-08-26T02:28:15.529Z,99753.59
2022-08-26T02:30:49.344Z,99751.84
2022-08-26T02:33:23.713Z,99740.73
2022-08-26T02:35:57.384Z,99746.05
2022-08-26T02:38:30.235Z,99739.85
2022-08-26T02:41:03.691Z,99730.06
2022-08-26T02:43:36.983Z,99730.05
2022-08-26T02:46:10.491Z,99739.83
2022-08-26T02:48:43.749Z,99741.16
2022-08-26T02:51:16.832Z,99748.24
2022-08-26T02:53:51.053Z,99750.90
2022-08-26T02:56:25.050Z,99750.01
2022-08-26T02:58:58.957Z,99765.09
2022-08-26T03:01:35.177Z,99769.98
2022-08-26T03:04:11.618Z,99765.53
2022-08-26T03:06:46.969Z,99765.52
2022-08-26T03:09:20.313Z,99767.72
2022-08-26T03:11:55.211Z,99774.84
2022-08-26T03:14:29.129Z,99780.63
2022-08-26T03:17:03.267Z,99774.38
2022-08-26T03:19:37.472Z,99780.16
2022-08-26T03:22:10.663Z,99781.03
2022-08-26T03:24:46.134Z,99794.34
2022-08-26T03:27:19.578Z,99795.67
2022-08-26T03:30:11.723Z,99798.34
2022-08-26T03:32:45.223Z,99807.21
2022-08-26T03:35:18.092Z,99819.20
2022-08-26T03:37:53.092Z,99808.09
2022-08-26T03:40:26.278Z,99818.78
2022-08-26T03:43:01.972Z,99815.19
2022-08-26T03:45:35.559Z,99820.97
2022-08-26T03:48:09.356Z,99825.84
2022-08-26T03:50:42.886Z,99824.05
2022-08-26T03:53:16.219Z,99827.16
2022-08-26T03:55:51.893Z,99820.93
2022-08-26T03:58:25.705Z,99808.47
2022-08-26T04:00:59.206Z,99815.12
2022-08-26T04:03:50.308Z,99806.23
2022-08-26T04:06:26.074Z,99800.44
2022-08-26T04:09:01.350Z,99792.42
2022-08-26T04:11:38.297Z,99787.08
2022-08-26T04:14:20.087Z,99783.08
2022-08-26T04:16:55.239Z,99795.48
2022-08-26T04:19:28.842Z,99779.92
2022-08-26T04:22:02.954Z,99781.23
2022-08-26T04:24:36.533Z,99775.44
2022-08-26T04:27:10.674Z,99769.66
2022-08-26T04:29:46.093Z,99770.06
2022-08-26T04:32:20.812Z,99770.05
2022-08-26T04:34:54.015Z,99757.16
2022-08-26T04:37:26.785Z,99757.16
2022-08-26T04:40:00.405Z,99759.36
2022-08-26T04:42:34.914Z,99761.56
2022-08-26T04:45:10.425Z,99745.53
2022-08-26T04:47:43.473Z,99745.53
2022-08-26T04:50:17.765Z,99748.64
2022-08-26T04:52:52.107Z,99749.53
2022-08-26T04:55:38.649Z,99749.98
2022-08-26T04:58:00.185Z,99735.76
2022-08-26T05:00:33.408Z,99734.41
2022-08-26T05:03:10.584Z,99742.79
2022-08-26T05:05:48.335Z,99742.79
2022-08-26T05:08:23.359Z,99744.13
2022-08-26T05:10:57.484Z,99739.70
2022-08-26T05:13:30.564Z,99738.34
2022-08-26T05:16:07.648Z,99737.88
2022-08-26T05:18:43.687Z,99732.53
2022-08-26T05:21:27.459Z,99730.30
2022-08-26T05:24:01.294Z,99730.30
2022-08-26T05:26:36.134Z,99725.39
2022-08-26T05:29:09.077Z,99727.59
2022-08-26T05:31:42.228Z,99737.37
2022-08-26T05:34:15.082Z,99750.23
2022-08-26T05:36:48.556Z,99740.88
2022-08-26T05:39:23.181Z,99741.78
2022-08-26T05:41:56.056Z,99743.10
2022-08-26T05:44:29.080Z,99742.63
2022-08-26T05:47:04.067Z,99746.61
2022-08-26T05:49:37.489Z,99740.34
2022-08-26T05:52:12.018Z,99738.11
2022-08-26T05:54:45.738Z,99738.11
2022-08-26T05:57:20.399Z,99748.75
2022-08-26T05:59:55.341Z,99735.38
2022-08-26T06:02:29.229Z,99729.97
2022-08-26T06:05:02.086Z,99728.99
2022-08-26T06:07:52.948Z,99716.91
2022-08-26T06:10:32.449Z,99711.39
2022-08-26T06:13:11.833Z,99711.39
2022-08-26T06:15:38.906Z,99711.28
2022-08-26T06:18:14.852Z,99713.81
2022-08-26T06:20:57.310Z,99704.75
2022-08-26T06:23:41.593Z,99712.66
2022-08-26T06:26:16.300Z,99718.34
2022-08-26T06:28:49.306Z,99723.55
2022-08-26T06:31:23.172Z,99713.18
2022-08-26T06:33:57.152Z,99712.20
2022-08-26T06:36:33.220Z,99714.72
2022-08-26T06:39:10.199Z,99700.34
2022-08-26T06:41:46.733Z,99702.91
2022-08-26T06:44:21.881Z,99695.23
2022-08-26T06:46:54.777Z,99688.97
2022-08-26T06:49:27.930Z,99676.43
2022-08-26T06:52:00.860Z,99677.69
2022-08-26T06:54:34.577Z,99668.27
2022-08-26T06:57:07.497Z,99679.38
2022-08-26T06:59:41.068Z,99679.72
2022-08-26T07:02:14.921Z,99676.09
2022-08-26T07:04:48.103Z,99676.91
2022-08-26T07:07:22.799Z,99681.81
2022-08-26T07:09:56.510Z,99688.02
2022-08-26T07:12:29.429Z,99676.38
2022-08-26T07:15:03.049Z,99677.68
2022-08-26T07:17:36.183Z,99677.70
2022-08-26T07:20:11.814Z,99670.61
2022-08-26T07:22:44.811Z,99662.62
2022-08-26T07:25:17.856Z,99675.61
2022-08-26T07:27:54.335Z,99692.14
2022-08-26T07:30:27.546Z,99674.78
2022-08-26T07:33:00.875Z,99679.75
2022-08-26T07:35:33.955Z,99674.50
2022-08-26T07:38:08.050Z,99685.75
2022-08-26T07:40:41.340Z,99677.36
2022-08-26T07:43:14.785Z,99690.80
2022-08-26T07:45:47.881Z,99691.30
2022-08-26T07:48:21.537Z,99698.99
2022-08-26T07:50:54.646Z,99696.87
2022-08-26T07:53:28.603Z,99701.84
2022-08-26T07:56:01.849Z,99709.95
2022-08-26T07:58:35.676Z,99714.89
2022-08-26T08:01:08.810Z,99717.64
2022-08-26T08:03:42.249Z,99723.91
2022-08-26T08:06:15.263Z,99727.95
2022-08-26T08:08:50.713Z,99731.09
2022-08-26T08:11:25.374Z,99736.88
2022-08-26T08:14:01.262Z,99732.01
2022-08-26T08:16:36.375Z,99731.13
2022-08-26T08:19:09.604Z,99732.01
2022-08-26T08:21:43.448Z,99735.13
2022-08-26T08:24:16.387Z,99736.42
2022-08-26T08:26:49.593Z,99743.50
2022-08-26T08:29:23.742Z,99743.46
2022-08-26T08:31:58.705Z,99748.31
2022-08-26T08:34:33.357Z,99746.83
2022-08-26T08:37:10.654Z,99753.73
2022-08-26T08:39:44.117Z,99756.08
2022-08-26T08:45:35.888Z,99753.52
2022-08-26T08:48:27.573Z,99740.48
2022-08-26T08:51:06.458Z,99735.11
2022-08-26T08:53:45.589Z,99726.63
2022-08-26T08:56:32.323Z,99725.77
2022-08-26T08:59:13.260Z,99720.16
2022-08-26T09:02:33.702Z,99710.95
2022-08-26T09:05:23.893Z,99715.67
2022-08-26T09:08:19.795Z,99710.59
2022-08-26T09:10:59.771Z,99715.81
2022-08-26T09:13:32.917Z,99707.97
2022-08-26T09:16:40.799Z,99697.95
2022-08-26T09:19:27.676Z,99710.98
2022-08-26T09:22:07.004Z,99699.38
2022-08-26T09:24:42.077Z,99704.77
2022-08-26T09:27:36.458Z,99700.77
2022-08-26T09:30:17.635Z,99692.95
2022-08-26T09:33:10.134Z,99703.93
2022-08-26T09:35:47.679Z,99693.04
2022-08-26T09:38:31.575Z,99701.54
2022-08-26T09:41:08.855Z,99698.77
2022-08-26T09:43:41.812Z,99696.42
2022-08-26T09:46:25.366Z,99689.13
2022-08-26T09:48:58.342Z,99692.03
2022-08-26T09:51:35.426Z,99685.47
2022-08-26T09:54:08.543Z,99682.06
2022-08-26T09:56:42.974Z,99679.58
2022-08-26T09:59:18.931Z,99682.52
2022-08-26T10:01:53.537Z,99683.23
2022-08-26T10:04:27.687Z,99679.38
2022-08-26T10:07:04.633Z,99680.92
2022-08-26T10:09:43.680Z,99679.33
2022-08-26T10:12:21.674Z,99679.95
2022-08-26T10:14:57.987Z,99687.44
2022-08-26T10:17:53.308Z,99685.46
2022-08-26T10:20:29.158Z,99690.75
2022-08-26T10:23:15.979Z,99681.75
2022-08-26T10:25:58.960Z,99687.58
2022-08-26T10:29:04.154Z,99682.24
2022-08-26T10:31:45.703Z,99681.75
2022-08-26T10:34:21.517Z,99682.47
2022-08-26T10:37:14.488Z,99680.05
2022-08-26T10:40:05.473Z,99681.08
2022-08-26T10:43:02.000Z,99679.89
2022-08-26T10:45:47.242Z,99671.23
2022-08-26T10:48:35.742Z,99679.41
2022-08-26T10:51:05.784Z,99681.34
2022-08-26T10:53:59.987Z,99685.97
2022-08-26T10:56:53.122Z,99672.13
2022-08-26T10:59:49.088Z,99656.94
2022-08-26T11:02:36.392Z,99651.20
2022-08-26T11:05:23.874Z,99652.13
2022-08-26T11:08:25.881Z,99647.66
2022-08-26T11:11:03.308Z,99651.65
2022-08-26T11:14:03.278Z,99653.90
2022-08-26T11:16:43.768Z,99637.25
2022-08-26T11:20:01.962Z,99629.76
2022-08-26T11:22:32.209Z,99644.12
2022-08-26T11:25:12.199Z,99639.70
2022-08-26T11:27:58.575Z,99644.27
2022-08-26T11:30:44.597Z,99640.49
2022-08-26T11:33:52.438Z,99637.19
2022-08-26T11:36:49.823Z,99645.95
2022-08-26T11:39:54.658Z,99660.95
2022-08-26T11:42:33.435Z,99660.23
2022-08-26T11:45:27.205Z,99644.52
2022-08-26T11:48:18.674Z,99635.53
2022-08-26T11:51:04.013Z,99650.81
2022-08-26T11:53:41.337Z,99643.61
2022-08-26T11:56:25.220Z,99642.73
2022-08-26T11:59:02.484Z,99645.00
2022-08-26T12:01:42.177Z,99645.05
2022-08-26T12:04:31.191Z,99655.92
2022-08-26T12:07:05.901Z,99645.25
2022-08-26T12:09:54.855Z,99640.84
2022-08-26T12:12:35.229Z,99638.67
2022-08-26T12:15:12.762Z,99654.88
2022-08-26T12:17:52.982Z,99642.41
2022-08-26T12:20:51.179Z,99640.64
2022-08-26T12:23:38.272Z,99635.30
2022-08-26T12:26:31.195Z,99628.48
2022-08-26T12:29:27.232Z,99634.11
2022-08-26T12:32:17.763Z,99630.30
2022-08-26T12:34:51.175Z,99609.47
2022-08-26T12:37:24.547Z,99605.86
2022-08-26T12:39:58.735Z,99611.67
2022-08-26T12:42:44.216Z,99625.19
2022-08-26T12:45:30.380Z,99628.32
2022-08-26T12:48:10.979Z,99624.81
2022-08-26T12:50:50.761Z,99624.81
2022-08-26T12:53:29.890Z,99624.34
2022-08-26T12:56:08.129Z,99609.58
2022-08-26T12:58:41.719Z,99615.44
2022-08-26T13:01:22.743Z,99615.91
2022-08-26T13:03:55.849Z,99614.96
2022-08-26T13:06:31.670Z,99622.12
2022-08-26T13:09:17.515Z,99625.73
2022-08-26T13:11:56.040Z,99619.95
2022-08-26T13:14:29.412Z,99618.75
2022-08-26T13:17:02.746Z,99611.31
2022-08-26T13:19:36.077Z,99617.28
2022-08-26T13:22:09.195Z,99623.30
2022-08-26T13:24:44.604Z,99625.66
2022-08-26T13:27:19.297Z,99616.57
2022-08-26T13:29:53.309Z,99602.41
2022-08-26T13:32:27.491Z,99587.41
2022-08-26T13:35:00.590Z,99576.46
2022-08-26T13:37:35.713Z,99581.20
2022-08-26T13:40:10.485Z,99589.55
2022-08-26T13:42:49.566Z,99600.50
2022-08-26T13:45:18.394Z,99614.60
2022-08-26T13:47:51.789Z,99616.17
2022-08-26T13:50:25.179Z,99616.34
2022-08-26T13:52:58.224Z,99624.14
2022-08-26T13:55:31.269Z,99618.47
2022-08-26T13:58:04.306Z,99622.58
2022-08-26T14:00:37.921Z,99620.92
2022-08-26T14:03:13.386Z,99633.58
2022-08-26T14:05:46.036Z,99644.06
2022-08-26T14:08:19.675Z,99641.02
2022-08-26T14:10:54.042Z,99641.14
2022-08-26T14:13:27.133Z,99637.20
2022-08-26T14:16:01.802Z,99619.50
2022-08-26T14:18:41.775Z,99621.48
2022-08-26T14:21:15.349Z,99622.16
2022-08-26T14:23:48.492Z,99609.83
2022-08-26T14:26:28.553Z,99615.83
2022-08-26T14:28:56.337Z,99611.05
2022-08-26T14:31:31.896Z,99613.81
2022-08-26T14:34:07.664Z,99620.59
2022-08-26T14:36:41.034Z,99615.34
2022-08-26T14:39:15.645Z,99608.70
2022-08-26T14:41:54.417Z,99609.65
2022-08-26T14:44:31.550Z,99616.87
2022-08-26T14:47:07.012Z,99610.16
2022-08-26T14:49:39.987Z,99605.27
2022-08-26T14:52:13.596Z,99602.59
2022-08-26T14:54:46.784Z,99602.59
2022-08-26T14:57:19.971Z,99603.45
2022-08-26T14:59:53.388Z,99598.05
2022-08-26T15:02:33.249Z,99602.94
2022-08-26T15:05:01.467Z,99592.20
2022-08-26T15:07:34.919Z,99592.20
2022-08-26T15:10:11.568Z,99590.44
2022-08-26T15:12:46.137Z,99593.59
2022-08-26T15:15:19.159Z,99590.94
2022-08-26T15:17:52.111Z,99592.28
2022-08-26T15:20:25.239Z,99588.33
2022-08-26T15:23:03.316Z,99593.70
2022-08-26T15:25:33.028Z,99592.39
2022-08-26T15:28:06.606Z,99591.52
2022-08-26T15:30:40.425Z,99600.05
2022-08-26T15:33:15.193Z,99592.03
2022-08-26T15:35:49.088Z,99596.13
2022-08-26T15:38:22.130Z,99597.03
2022-08-26T15:40:58.714Z,99589.50
2022-08-26T15:43:30.603Z,99591.31
2022-08-26T15:46:03.844Z,99590.48
2022-08-26T15:48:36.812Z,99588.73
2022-08-26T15:51:12.320Z,99587.91
2022-08-26T15:53:45.811Z,99587.10
2022-08-26T15:56:19.135Z,99583.59
2022-08-26T15:58:52.426Z,99584.97
2022-08-26T16:01:28.820Z,99576.63
2022-08-26T16:04:02.017Z,99584.34
2022-08-26T16:06:37.881Z,99576.00
2022-08-26T16:09:11.710Z,99581.94
2022-08-26T16:11:45.345Z,99581.63
2022-08-26T16:14:18.640Z,99577.68
2022-08-26T16:16:52.608Z,99584.02
2022-08-26T16:19:26.319Z,99587.42
2022-08-26T16:22:00.081Z,99587.42
2022-08-26T16:24:32.974Z,99591.14
2022-08-26T16:27:06.010Z,99592.58
2022-08-26T16:29:40.551Z,99593.10
2022-08-26T16:32:13.730Z,99590.48
2022-08-26T16:34:56.586Z,99586.06
2022-08-26T16:37:22.845Z,99591.92
2022-08-26T16:39:56.070Z,99594.63
2022-08-26T16:42:29.114Z,99589.73
2022-08-26T16:45:02.063Z,99594.25
2022-08-26T16:47:37.083Z,99592.47
2022-08-26T16:50:12.728Z,99596.12
2022-08-26T16:52:46.121Z,99590.80
2022-08-26T16:55:21.060Z,99593.91
2022-08-26T16:57:54.787Z,99598.86
2022-08-26T17:00:31.092Z,99595.77
2022-08-26T17:03:04.860Z,99597.61
2022-08-26T17:05:38.874Z,99594.14
2022-08-26T17:08:12.641Z,99595.58
2022-08-26T17:10:46.831Z,99597.31
2022-08-26T17:13:24.057Z,99602.32
2022-08-26T17:15:58.375Z,99598.36
2022-08-26T17:18:33.754Z,99598.45
2022-08-26T17:21:13.375Z,99592.70
2022-08-26T17:23:47.438Z,99599.89
2022-08-26T17:26:20.488Z,99593.70
2022-08-26T17:28:53.710Z,99595.96
2022-08-26T17:31:27.160Z,99591.53
2022-08-26T17:34:00.210Z,99593.37
2022-08-26T17:36:33.219Z,99589.41
2022-08-26T17:39:06.317Z,99597.93
2022-08-26T17:41:40.762Z,99593.99
2022-08-26T17:44:13.643Z,99597.59
2022-08-26T17:46:46.627Z,99595.41
2022-08-26T17:49:19.832Z,99590.53
2022-08-26T17:51:52.767Z,99584.30
2022-08-26T17:54:25.676Z,99587.02
2022-08-26T17:56:58.692Z,99585.33
2022-08-26T17:59:33.149Z,99589.91
2022-08-26T18:02:06.432Z,99584.20
2022-08-26T18:04:39.399Z,99582.94
2022-08-26T18:07:12.592Z,99583.91
2022-08-26T18:09:47.190Z,99583.07
2022-08-26T18:12:20.824Z,99578.26
2022-08-26T18:14:55.432Z,99574.78
2022-08-26T18:17:30.173Z,99578.40
2022-08-26T18:20:03.209Z,99566.87
2022-08-26T18:22:36.765Z,99570.96
2022-08-26T18:25:11.168Z,99567.48
2022-08-26T18:27:46.394Z,99572.88
2022-08-26T18:30:22.633Z,99568.06
2022-08-26T18:32:55.703Z,99567.20
2022-08-26T18:35:30.159Z,99565.49
2022-08-26T18:38:10.690Z,99568.23
2022-08-26T18:40:40.378Z,99560.77
2022-08-26T18:43:13.386Z,99567.48
2022-08-26T18:45:46.395Z,99567.53
2022-08-26T18:48:19.222Z,99571.61
2022-08-26T18:50:55.076Z,99562.80
2022-08-26T18:53:27.896Z,99569.96
2022-08-26T18:56:00.905Z,99565.20
2022-08-26T18:58:33.783Z,99563.92
2022-08-26T19:01:07.079Z,99565.75
2022-08-26T19:03:40.400Z,99561.80
2022-08-26T19:06:22.314Z,99560.98
2022-08-26T19:08:55.850Z,99565.44
2022-08-26T19:11:31.425Z,99562.80
2022-08-26T19:14:07.606Z,99560.63
2022-08-26T19:16:42.119Z,99558.01
2022-08-26T19:19:15.294Z,99560.28
2022-08-26T19:21:48.768Z,99553.66
2022-08-26T19:24:22.779Z,99552.77
2022-08-26T19:26:59.934Z,99548.40
2022-08-26T19:29:36.504Z,99546.63
2022-08-26T19:32:09.388Z,99550.67
2022-08-26T19:34:42.674Z,99548.03
2022-08-26T19:37:15.574Z,99546.76
2022-08-26T19:39:49.476Z,99556.19
2022-08-26T19:42:22.573Z,99554.42
2022-08-26T19:45:07.969Z,99551.78
2022-08-26T19:47:42.841Z,99557.13
2022-08-26T19:50:18.227Z,99554.94
2022-08-26T19:52:51.428Z,99555.40
2022-08-26T19:55:25.008Z,99555.44
2022-08-26T19:57:58.017Z,99551.02
2022-08-26T20:00:32.245Z,99551.50
2022-08-26T20:03:05.241Z,99556.38
2022-08-26T20:05:38.152Z,99560.83
2022-08-26T20:08:22.529Z,99560.83
2022-08-26T20:10:48.051Z,99557.73
2022-08-26T20:13:22.382Z,99561.73
2022-08-26T20:15:55.369Z,99557.28
2022-08-26T20:18:46.046Z,99562.20
2022-08-26T20:21:27.753Z,99559.99
2022-08-26T20:24:05.425Z,99555.58
2022-08-26T20:26:41.004Z,99550.25
2022-08-26T20:29:17.460Z,99554.70
2022-08-26T20:31:52.703Z,99563.64
2022-08-26T20:34:26.599Z,99557.01
2022-08-26T20:36:59.788Z,99556.57
2022-08-26T20:39:33.516Z,99556.14
2022-08-26T20:42:07.174Z,99559.72
2022-08-26T20:44:43.267Z,99554.89
2022-08-26T20:47:17.642Z,99556.25
2022-08-26T20:49:52.366Z,99557.59
2022-08-26T20:52:25.087Z,99560.25
2022-08-26T20:54:58.047Z,99561.13
2022-08-26T20:57:30.911Z,99561.59
2022-08-26T21:00:03.966Z,99563.37
2022-08-26T21:02:37.210Z,99564.70
2022-08-26T21:05:11.020Z,99566.47
2022-08-26T21:07:43.442Z,99569.16
2022-08-26T21:10:16.565Z,99565.19
2022-08-26T21:12:49.449Z,99566.13
2022-08-26T21:15:22.653Z,99570.12
2022-08-26T21:17:55.717Z,99566.13
2022-08-26T21:20:28.576Z,99575.45
2022-08-26T21:23:01.642Z,99572.80
2022-08-26T21:25:34.638Z,99575.02
2022-08-26T21:28:08.709Z,99578.12
2022-08-26T21:30:42.777Z,99576.80
2022-08-26T21:33:15.686Z,99579.02
2022-08-26T21:35:55.763Z,99579.47
2022-08-26T21:38:31.839Z,99575.02
2022-08-26T21:41:18.528Z,99583.94
2022-08-26T21:43:54.550Z,99583.02
2022-08-26T21:46:29.948Z,99583.02
2022-08-26T21:49:07.672Z,99575.89
2022-08-26T21:51:45.658Z,99581.20
2022-08-26T21:54:19.606Z,99584.31
2022-08-26T21:56:52.868Z,99583.84
2022-08-26T21:59:26.600Z,99584.29
2022-08-26T22:02:00.023Z,99584.28
2022-08-26T22:04:33.403Z,99584.28
2022-08-26T22:07:07.301Z,99583.40
2022-08-26T22:09:40.871Z,99580.28
2022-08-26T22:12:18.146Z,99581.62
2022-08-26T22:14:51.085Z,99588.73
2022-08-26T22:17:23.962Z,99579.42
2022-08-26T22:19:57.144Z,99578.09
2022-08-26T22:22:31.097Z,99580.28
2022-08-26T22:25:04.119Z,99574.96
2022-08-26T22:27:40.566Z,99570.50
2022-08-26T22:30:12.311Z,99582.06
2022-08-26T22:32:46.113Z,99582.48
2022-08-26T22:35:29.091Z,99574.93
2022-08-26T22:37:54.092Z,99574.92
2022-08-26T22:40:28.855Z,99571.80
2022-08-26T22:43:02.678Z,99572.70
2022-08-26T22:45:35.659Z,99571.78
2022-08-26T22:48:08.989Z,99564.71
2022-08-26T22:50:42.507Z,99562.05
2022-08-26T22:53:17.028Z,99563.80
2022-08-26T22:55:50.221Z,99564.25
2022-08-26T22:58:30.256Z,99562.05
2022-08-26T23:00:59.809Z,99569.13
2022-08-26T23:03:32.234Z,99567.37
2022-08-26T23:06:09.646Z,99567.80
2022-08-26T23:08:44.988Z,99563.82
2022-08-26T23:11:19.631Z,99566.48
2022-08-26T23:13:52.839Z,99564.28
2022-08-26T23:16:26.160Z,99566.95
2022-08-26T23:18:59.241Z,99568.27
2022-08-26T23:21:32.121Z,99565.60
2022-08-26T23:24:06.443Z,99562.50
2022-08-26T23:26:40.353Z,99565.63
2022-08-26T23:29:15.836Z,99563.42
2022-08-26T23:31:48.925Z,99565.64
2022-08-26T23:34:39.766Z,99574.50
2022-08-26T23:37:14.006Z,99568.31
2022-08-26T23:39:48.736Z,99568.78
2022-08-26T23:42:22.260Z,99572.34
2022-08-26T23:44:55.055Z,99573.22
2022-08-26T23:47:27.884Z,99574.13
2022-08-26T23:50:01.018Z,99574.61
2022-08-26T23:52:51.726Z,99570.62
2022-08-26T23:55:24.636Z,99573.73
2022-08-26T23:57:57.524Z,99578.20
